sensor_id;sensor_type;location;lat;lon;timestamp;P1;durP1;ratioP1;P2;durP2;ratioP2
18780;SDS011;9519;51.890;8.970;2022-12-10T00:01:43;31.20;;;22.10;;
18780;SDS011;9519;51.890;8.970;2022-12-10T00:06:47;34.60;;;23.90;;
18780;SDS011;9519;51.890;8.970;2022-12-10T00:11:49;32.97;;;21.93;;
18780;SDS011;9519;51.890;8.970;2022-12-10T00:16:51;30.97;;;21.67;;
18780;SDS011;9519;51.890;8.970;2022-12-10T00:21:55;30.87;;;20.53;;
18780;SDS011;9519;51.890;8.970;2022-12-10T00:26:57;34.50;;;22.37;;
18780;SDS011;9519;51.890;8.970;2022-12-10T00:31:59;40.60;;;25.60;;
18780;SDS011;9519;51.890;8.970;2022-12-10T00:37:03;42.47;;;27.70;;
18780;SDS011;9519;51.890;8.970;2022-12-10T00:42:05;38.30;;;25.43;;
18780;SDS011;9519;51.890;8.970;2022-12-10T00:47:07;37.37;;;25.67;;
18780;SDS011;9519;51.890;8.970;2022-12-10T00:52:10;46.73;;;29.37;;
18780;SDS011;9519;51.890;8.970;2022-12-10T00:57:12;45.83;;;29.60;;
18780;SDS011;9519;51.890;8.970;2022-12-10T01:02:17;47.57;;;30.03;;
18780;SDS011;9519;51.890;8.970;2022-12-10T01:07:21;45.63;;;29.07;;
18780;SDS011;9519;51.890;8.970;2022-12-10T01:12:23;51.63;;;30.40;;
18780;SDS011;9519;51.890;8.970;2022-12-10T01:17:25;48.40;;;29.73;;
18780;SDS011;9519;51.890;8.970;2022-12-10T01:22:29;44.37;;;28.57;;
18780;SDS011;9519;51.890;8.970;2022-12-10T01:27:31;44.40;;;27.80;;
18780;SDS011;9519;51.890;8.970;2022-12-10T01:32:33;42.53;;;27.77;;
18780;SDS011;9519;51.890;8.970;2022-12-10T01:37:36;39.83;;;26.73;;
18780;SDS011;9519;51.890;8.970;2022-12-10T01:42:38;38.43;;;25.47;;
18780;SDS011;9519;51.890;8.970;2022-12-10T01:47:40;41.77;;;26.67;;
18780;SDS011;9519;51.890;8.970;2022-12-10T01:52:44;44.17;;;27.50;;
18780;SDS011;9519;51.890;8.970;2022-12-10T01:57:47;47.67;;;29.50;;
18780;SDS011;9519;51.890;8.970;2022-12-10T02:02:51;47.70;;;29.00;;
18780;SDS011;9519;51.890;8.970;2022-12-10T02:08:06;44.57;;;27.07;;
18780;SDS011;9519;51.890;8.970;2022-12-10T02:13:18;47.30;;;28.93;;
18780;SDS011;9519;51.890;8.970;2022-12-10T02:18:30;47.73;;;29.47;;
18780;SDS011;9519;51.890;8.970;2022-12-10T02:23:41;51.17;;;31.57;;
18780;SDS011;9519;51.890;8.970;2022-12-10T02:28:51;49.67;;;30.80;;
18780;SDS011;9519;51.890;8.970;2022-12-10T02:34:12;54.07;;;31.93;;
18780;SDS011;9519;51.890;8.970;2022-12-10T02:39:18;47.33;;;29.80;;
18780;SDS011;9519;51.890;8.970;2022-12-10T02:44:27;48.50;;;29.33;;
18780;SDS011;9519;51.890;8.970;2022-12-10T02:49:32;50.50;;;31.13;;
18780;SDS011;9519;51.890;8.970;2022-12-10T02:54:37;56.00;;;31.47;;
18780;SDS011;9519;51.890;8.970;2022-12-10T02:59:48;52.90;;;30.70;;
18780;SDS011;9519;51.890;8.970;2022-12-10T03:05:11;53.17;;;30.83;;
18780;SDS011;9519;51.890;8.970;2022-12-10T03:10:23;52.77;;;32.60;;
18780;SDS011;9519;51.890;8.970;2022-12-10T03:15:35;53.97;;;32.53;;
18780;SDS011;9519;51.890;8.970;2022-12-10T03:20:42;46.10;;;26.80;;
18780;SDS011;9519;51.890;8.970;2022-12-10T03:25:47;46.33;;;26.90;;
18780;SDS011;9519;51.890;8.970;2022-12-10T03:30:53;43.97;;;27.83;;
18780;SDS011;9519;51.890;8.970;2022-12-10T03:35:57;42.10;;;25.53;;
18780;SDS011;9519;51.890;8.970;2022-12-10T03:40:59;40.30;;;26.17;;
18780;SDS011;9519;51.890;8.970;2022-12-10T03:46:03;42.70;;;26.60;;
18780;SDS011;9519;51.890;8.970;2022-12-10T03:51:05;43.03;;;27.17;;
18780;SDS011;9519;51.890;8.970;2022-12-10T03:56:08;43.37;;;26.33;;
18780;SDS011;9519;51.890;8.970;2022-12-10T04:01:11;46.63;;;28.20;;
18780;SDS011;9519;51.890;8.970;2022-12-10T04:06:14;42.77;;;27.17;;
18780;SDS011;9519;51.890;8.970;2022-12-10T04:11:19;43.47;;;27.07;;
18780;SDS011;9519;51.890;8.970;2022-12-10T04:16:23;40.90;;;26.03;;
18780;SDS011;9519;51.890;8.970;2022-12-10T04:21:30;44.60;;;26.13;;
18780;SDS011;9519;51.890;8.970;2022-12-10T04:26:51;46.87;;;28.50;;
18780;SDS011;9519;51.890;8.970;2022-12-10T04:31:56;47.47;;;29.93;;
18780;SDS011;9519;51.890;8.970;2022-12-10T04:37:00;43.37;;;28.73;;
18780;SDS011;9519;51.890;8.970;2022-12-10T04:42:04;41.17;;;26.77;;
18780;SDS011;9519;51.890;8.970;2022-12-10T04:47:09;45.13;;;29.77;;
18780;SDS011;9519;51.890;8.970;2022-12-10T04:52:12;47.77;;;31.70;;
18780;SDS011;9519;51.890;8.970;2022-12-10T04:57:16;48.17;;;29.10;;
18780;SDS011;9519;51.890;8.970;2022-12-10T05:02:19;47.23;;;29.27;;
18780;SDS011;9519;51.890;8.970;2022-12-10T05:07:21;51.00;;;30.23;;
18780;SDS011;9519;51.890;8.970;2022-12-10T05:12:23;43.07;;;27.20;;
18780;SDS011;9519;51.890;8.970;2022-12-10T05:17:27;44.20;;;27.90;;
18780;SDS011;9519;51.890;8.970;2022-12-10T05:22:29;45.70;;;27.47;;
18780;SDS011;9519;51.890;8.970;2022-12-10T05:27:49;45.37;;;26.47;;
18780;SDS011;9519;51.890;8.970;2022-12-10T05:32:52;43.77;;;27.13;;
18780;SDS011;9519;51.890;8.970;2022-12-10T05:37:54;44.37;;;26.73;;
18780;SDS011;9519;51.890;8.970;2022-12-10T05:42:57;45.70;;;28.00;;
18780;SDS011;9519;51.890;8.970;2022-12-10T05:48:00;44.83;;;27.33;;
18780;SDS011;9519;51.890;8.970;2022-12-10T05:53:02;44.57;;;26.90;;
18780;SDS011;9519;51.890;8.970;2022-12-10T05:58:05;47.70;;;28.60;;
18780;SDS011;9519;51.890;8.970;2022-12-10T06:03:08;54.87;;;29.13;;
18780;SDS011;9519;51.890;8.970;2022-12-10T06:08:10;52.63;;;28.93;;
18780;SDS011;9519;51.890;8.970;2022-12-10T06:13:13;47.77;;;28.60;;
18780;SDS011;9519;51.890;8.970;2022-12-10T06:18:16;48.37;;;28.37;;
18780;SDS011;9519;51.890;8.970;2022-12-10T06:23:18;56.87;;;27.87;;
18780;SDS011;9519;51.890;8.970;2022-12-10T06:28:21;48.83;;;28.33;;
18780;SDS011;9519;51.890;8.970;2022-12-10T06:33:24;49.23;;;29.33;;
18780;SDS011;9519;51.890;8.970;2022-12-10T06:38:26;53.80;;;29.33;;
18780;SDS011;9519;51.890;8.970;2022-12-10T06:43:28;55.20;;;31.57;;
18780;SDS011;9519;51.890;8.970;2022-12-10T06:48:32;53.73;;;29.63;;
18780;SDS011;9519;51.890;8.970;2022-12-10T06:53:36;55.73;;;30.30;;
18780;SDS011;9519;51.890;8.970;2022-12-10T06:58:39;56.57;;;30.07;;
18780;SDS011;9519;51.890;8.970;2022-12-10T07:03:43;54.20;;;30.57;;
18780;SDS011;9519;51.890;8.970;2022-12-10T07:08:49;47.70;;;28.23;;
18780;SDS011;9519;51.890;8.970;2022-12-10T07:13:52;47.40;;;28.13;;
18780;SDS011;9519;51.890;8.970;2022-12-10T07:18:56;48.53;;;27.47;;
18780;SDS011;9519;51.890;8.970;2022-12-10T07:24:02;49.43;;;28.33;;
18780;SDS011;9519;51.890;8.970;2022-12-10T07:29:08;47.50;;;28.00;;
18780;SDS011;9519;51.890;8.970;2022-12-10T07:34:16;49.90;;;26.93;;
18780;SDS011;9519;51.890;8.970;2022-12-10T07:39:18;51.63;;;27.67;;
18780;SDS011;9519;51.890;8.970;2022-12-10T07:44:21;52.37;;;27.73;;
18780;SDS011;9519;51.890;8.970;2022-12-10T07:49:27;55.13;;;29.67;;
18780;SDS011;9519;51.890;8.970;2022-12-10T07:54:30;57.83;;;29.87;;
18780;SDS011;9519;51.890;8.970;2022-12-10T07:59:33;59.60;;;30.40;;
18780;SDS011;9519;51.890;8.970;2022-12-10T08:04:37;59.47;;;32.13;;
18780;SDS011;9519;51.890;8.970;2022-12-10T08:09:39;59.57;;;30.47;;
18780;SDS011;9519;51.890;8.970;2022-12-10T08:14:41;62.47;;;30.43;;
18780;SDS011;9519;51.890;8.970;2022-12-10T08:19:44;53.13;;;29.00;;
18780;SDS011;9519;51.890;8.970;2022-12-10T08:24:46;58.60;;;31.63;;
18780;SDS011;9519;51.890;8.970;2022-12-10T08:29:48;52.00;;;28.63;;
18780;SDS011;9519;51.890;8.970;2022-12-10T08:34:52;54.63;;;29.20;;
18780;SDS011;9519;51.890;8.970;2022-12-10T08:39:54;51.37;;;28.03;;
18780;SDS011;9519;51.890;8.970;2022-12-10T08:44:56;53.77;;;26.27;;
18780;SDS011;9519;51.890;8.970;2022-12-10T08:49:59;55.03;;;27.83;;
18780;SDS011;9519;51.890;8.970;2022-12-10T08:55:01;57.30;;;28.30;;
18780;SDS011;9519;51.890;8.970;2022-12-10T09:00:05;49.10;;;26.17;;
18780;SDS011;9519;51.890;8.970;2022-12-10T09:05:10;53.13;;;25.83;;
18780;SDS011;9519;51.890;8.970;2022-12-10T09:10:13;53.87;;;28.20;;
18780;SDS011;9519;51.890;8.970;2022-12-10T09:15:16;50.27;;;27.83;;
18780;SDS011;9519;51.890;8.970;2022-12-10T09:20:19;56.43;;;29.00;;
18780;SDS011;9519;51.890;8.970;2022-12-10T09:25:21;53.67;;;28.23;;
18780;SDS011;9519;51.890;8.970;2022-12-10T09:30:24;54.57;;;29.07;;
18780;SDS011;9519;51.890;8.970;2022-12-10T09:35:27;53.70;;;28.53;;
18780;SDS011;9519;51.890;8.970;2022-12-10T09:40:32;46.07;;;25.43;;
18780;SDS011;9519;51.890;8.970;2022-12-10T09:45:44;43.73;;;27.23;;
18780;SDS011;9519;51.890;8.970;2022-12-10T09:51:04;31.50;;;19.93;;
18780;SDS011;9519;51.890;8.970;2022-12-10T09:56:14;28.60;;;16.73;;
18780;SDS011;9519;51.890;8.970;2022-12-10T10:01:24;27.87;;;17.17;;
18780;SDS011;9519;51.890;8.970;2022-12-10T10:06:31;23.83;;;16.47;;
18780;SDS011;9519;51.890;8.970;2022-12-10T10:11:34;21.10;;;13.50;;
18780;SDS011;9519;51.890;8.970;2022-12-10T10:16:39;17.23;;;11.83;;
18780;SDS011;9519;51.890;8.970;2022-12-10T10:21:50;17.03;;;11.77;;
18780;SDS011;9519;51.890;8.970;2022-12-10T10:26:53;14.43;;;9.57;;
18780;SDS011;9519;51.890;8.970;2022-12-10T10:32:13;15.93;;;10.90;;
18780;SDS011;9519;51.890;8.970;2022-12-10T10:37:20;19.40;;;13.83;;
18780;SDS011;9519;51.890;8.970;2022-12-10T10:42:32;18.00;;;12.47;;
18780;SDS011;9519;51.890;8.970;2022-12-10T10:47:39;16.40;;;11.53;;
18780;SDS011;9519;51.890;8.970;2022-12-10T10:52:42;17.47;;;13.13;;
18780;SDS011;9519;51.890;8.970;2022-12-10T10:57:44;17.83;;;12.60;;
18780;SDS011;9519;51.890;8.970;2022-12-10T11:02:46;16.13;;;10.33;;
18780;SDS011;9519;51.890;8.970;2022-12-10T11:07:52;15.57;;;10.60;;
18780;SDS011;9519;51.890;8.970;2022-12-10T11:13:03;14.63;;;9.53;;
18780;SDS011;9519;51.890;8.970;2022-12-10T11:18:21;14.67;;;9.60;;
18780;SDS011;9519;51.890;8.970;2022-12-10T11:23:29;12.97;;;9.20;;
18780;SDS011;9519;51.890;8.970;2022-12-10T11:28:36;17.03;;;10.40;;
18780;SDS011;9519;51.890;8.970;2022-12-10T11:33:53;14.87;;;9.50;;
18780;SDS011;9519;51.890;8.970;2022-12-10T11:39:10;17.47;;;12.20;;
18780;SDS011;9519;51.890;8.970;2022-12-10T11:44:35;15.80;;;10.90;;
18780;SDS011;9519;51.890;8.970;2022-12-10T11:49:51;16.87;;;12.17;;
18780;SDS011;9519;51.890;8.970;2022-12-10T11:55:13;26.17;;;14.63;;
18780;SDS011;9519;51.890;8.970;2022-12-10T12:00:33;20.40;;;12.67;;
18780;SDS011;9519;51.890;8.970;2022-12-10T12:05:52;16.83;;;11.83;;
18780;SDS011;9519;51.890;8.970;2022-12-10T12:11:20;18.87;;;12.10;;
18780;SDS011;9519;51.890;8.970;2022-12-10T12:16:37;22.63;;;13.90;;
18780;SDS011;9519;51.890;8.970;2022-12-10T12:21:48;18.50;;;13.57;;
18780;SDS011;9519;51.890;8.970;2022-12-10T12:26:54;23.83;;;17.40;;
18780;SDS011;9519;51.890;8.970;2022-12-10T12:32:04;20.33;;;13.97;;
18780;SDS011;9519;51.890;8.970;2022-12-10T12:37:16;17.73;;;12.13;;
18780;SDS011;9519;51.890;8.970;2022-12-10T12:42:29;21.37;;;11.60;;
18780;SDS011;9519;51.890;8.970;2022-12-10T12:47:39;18.20;;;12.53;;
18780;SDS011;9519;51.890;8.970;2022-12-10T12:52:48;20.53;;;13.40;;
18780;SDS011;9519;51.890;8.970;2022-12-10T12:58:09;21.07;;;13.03;;
18780;SDS011;9519;51.890;8.970;2022-12-10T13:03:27;19.47;;;14.07;;
18780;SDS011;9519;51.890;8.970;2022-12-10T13:08:41;22.30;;;15.67;;
18780;SDS011;9519;51.890;8.970;2022-12-10T13:19:34;21.77;;;15.40;;
18780;SDS011;9519;51.890;8.970;2022-12-10T13:24:48;21.70;;;16.47;;
18780;SDS011;9519;51.890;8.970;2022-12-10T13:30:32;25.30;;;17.73;;
18780;SDS011;9519;51.890;8.970;2022-12-10T13:35:41;22.40;;;16.03;;
18780;SDS011;9519;51.890;8.970;2022-12-10T13:40:59;24.87;;;16.93;;
18780;SDS011;9519;51.890;8.970;2022-12-10T13:46:25;23.60;;;15.27;;
18780;SDS011;9519;51.890;8.970;2022-12-10T13:51:36;21.07;;;15.47;;
18780;SDS011;9519;51.890;8.970;2022-12-10T13:57:01;25.90;;;17.90;;
18780;SDS011;9519;51.890;8.970;2022-12-10T14:02:28;25.67;;;17.33;;
18780;SDS011;9519;51.890;8.970;2022-12-10T14:08:13;25.13;;;17.73;;
18780;SDS011;9519;51.890;8.970;2022-12-10T14:13:21;24.13;;;16.40;;
18780;SDS011;9519;51.890;8.970;2022-12-10T14:18:34;25.07;;;16.80;;
18780;SDS011;9519;51.890;8.970;2022-12-10T14:23:38;23.47;;;16.93;;
18780;SDS011;9519;51.890;8.970;2022-12-10T14:28:48;22.90;;;15.93;;
18780;SDS011;9519;51.890;8.970;2022-12-10T14:33:57;30.30;;;17.73;;
18780;SDS011;9519;51.890;8.970;2022-12-10T14:39:04;26.17;;;18.83;;
18780;SDS011;9519;51.890;8.970;2022-12-10T14:44:16;28.30;;;19.03;;
18780;SDS011;9519;51.890;8.970;2022-12-10T14:49:22;24.23;;;17.50;;
18780;SDS011;9519;51.890;8.970;2022-12-10T14:54:28;22.33;;;16.40;;
18780;SDS011;9519;51.890;8.970;2022-12-10T14:59:35;21.37;;;16.10;;
18780;SDS011;9519;51.890;8.970;2022-12-10T15:04:46;24.80;;;17.10;;
18780;SDS011;9519;51.890;8.970;2022-12-10T15:09:51;29.30;;;20.47;;
18780;SDS011;9519;51.890;8.970;2022-12-10T15:15:04;25.10;;;18.20;;
18780;SDS011;9519;51.890;8.970;2022-12-10T15:20:20;24.10;;;17.17;;
18780;SDS011;9519;51.890;8.970;2022-12-10T15:25:31;24.53;;;17.60;;
18780;SDS011;9519;51.890;8.970;2022-12-10T15:30:46;25.03;;;18.00;;
18780;SDS011;9519;51.890;8.970;2022-12-10T15:35:54;22.73;;;16.47;;
18780;SDS011;9519;51.890;8.970;2022-12-10T15:41:00;26.03;;;17.63;;
18780;SDS011;9519;51.890;8.970;2022-12-10T15:46:46;29.17;;;19.27;;
18780;SDS011;9519;51.890;8.970;2022-12-10T15:51:50;27.77;;;20.23;;
18780;SDS011;9519;51.890;8.970;2022-12-10T15:56:53;25.33;;;18.87;;
18780;SDS011;9519;51.890;8.970;2022-12-10T16:01:55;24.57;;;17.67;;
18780;SDS011;9519;51.890;8.970;2022-12-10T16:07:00;25.13;;;17.70;;
18780;SDS011;9519;51.890;8.970;2022-12-10T16:12:06;24.20;;;17.63;;
18780;SDS011;9519;51.890;8.970;2022-12-10T16:17:11;27.43;;;17.80;;
18780;SDS011;9519;51.890;8.970;2022-12-10T16:22:15;23.47;;;17.17;;
18780;SDS011;9519;51.890;8.970;2022-12-10T16:27:17;25.47;;;17.03;;
18780;SDS011;9519;51.890;8.970;2022-12-10T16:32:19;30.03;;;19.63;;
18780;SDS011;9519;51.890;8.970;2022-12-10T16:37:23;26.63;;;17.83;;
18780;SDS011;9519;51.890;8.970;2022-12-10T16:42:25;24.60;;;17.63;;
18780;SDS011;9519;51.890;8.970;2022-12-10T16:47:29;27.40;;;18.23;;
18780;SDS011;9519;51.890;8.970;2022-12-10T16:52:32;26.90;;;18.90;;
18780;SDS011;9519;51.890;8.970;2022-12-10T16:57:37;27.80;;;18.63;;
18780;SDS011;9519;51.890;8.970;2022-12-10T17:02:40;25.07;;;17.63;;
18780;SDS011;9519;51.890;8.970;2022-12-10T17:07:44;26.97;;;19.13;;
18780;SDS011;9519;51.890;8.970;2022-12-10T17:12:46;25.90;;;18.23;;
18780;SDS011;9519;51.890;8.970;2022-12-10T17:17:48;26.63;;;18.77;;
18780;SDS011;9519;51.890;8.970;2022-12-10T17:22:52;53.70;;;31.37;;
18780;SDS011;9519;51.890;8.970;2022-12-10T17:27:54;36.53;;;21.60;;
18780;SDS011;9519;51.890;8.970;2022-12-10T17:32:56;26.63;;;18.27;;
18780;SDS011;9519;51.890;8.970;2022-12-10T17:37:59;26.13;;;18.40;;
18780;SDS011;9519;51.890;8.970;2022-12-10T17:43:01;26.80;;;18.03;;
18780;SDS011;9519;51.890;8.970;2022-12-10T17:48:04;23.13;;;16.57;;
18780;SDS011;9519;51.890;8.970;2022-12-10T17:53:08;25.67;;;17.50;;
18780;SDS011;9519;51.890;8.970;2022-12-10T17:58:14;25.20;;;17.53;;
18780;SDS011;9519;51.890;8.970;2022-12-10T18:03:16;28.37;;;19.83;;
18780;SDS011;9519;51.890;8.970;2022-12-10T18:08:20;27.67;;;19.33;;
18780;SDS011;9519;51.890;8.970;2022-12-10T18:13:23;29.83;;;19.87;;
18780;SDS011;9519;51.890;8.970;2022-12-10T18:18:25;30.00;;;21.07;;
18780;SDS011;9519;51.890;8.970;2022-12-10T18:23:28;28.70;;;19.83;;
18780;SDS011;9519;51.890;8.970;2022-12-10T18:28:45;30.87;;;21.00;;
18780;SDS011;9519;51.890;8.970;2022-12-10T18:33:51;29.37;;;19.43;;
18780;SDS011;9519;51.890;8.970;2022-12-10T18:38:58;27.77;;;19.03;;
18780;SDS011;9519;51.890;8.970;2022-12-10T18:44:05;28.43;;;19.57;;
18780;SDS011;9519;51.890;8.970;2022-12-10T18:49:09;26.87;;;19.83;;
18780;SDS011;9519;51.890;8.970;2022-12-10T18:54:13;27.30;;;20.87;;
18780;SDS011;9519;51.890;8.970;2022-12-10T18:59:17;29.07;;;20.63;;
18780;SDS011;9519;51.890;8.970;2022-12-10T19:04:19;27.47;;;19.80;;
18780;SDS011;9519;51.890;8.970;2022-12-10T19:09:23;27.73;;;19.87;;
18780;SDS011;9519;51.890;8.970;2022-12-10T19:14:26;28.63;;;20.07;;
18780;SDS011;9519;51.890;8.970;2022-12-10T19:19:28;30.20;;;20.67;;
18780;SDS011;9519;51.890;8.970;2022-12-10T19:24:31;28.67;;;20.33;;
18780;SDS011;9519;51.890;8.970;2022-12-10T19:29:33;30.33;;;20.17;;
18780;SDS011;9519;51.890;8.970;2022-12-10T19:34:35;28.97;;;19.93;;
18780;SDS011;9519;51.890;8.970;2022-12-10T19:39:39;29.50;;;20.23;;
18780;SDS011;9519;51.890;8.970;2022-12-10T19:44:41;30.03;;;21.07;;
18780;SDS011;9519;51.890;8.970;2022-12-10T19:49:43;30.13;;;20.60;;
18780;SDS011;9519;51.890;8.970;2022-12-10T19:54:47;30.13;;;20.60;;
18780;SDS011;9519;51.890;8.970;2022-12-10T19:59:49;32.80;;;22.43;;
18780;SDS011;9519;51.890;8.970;2022-12-10T20:04:51;32.10;;;22.77;;
18780;SDS011;9519;51.890;8.970;2022-12-10T20:09:55;30.03;;;21.17;;
18780;SDS011;9519;51.890;8.970;2022-12-10T20:14:57;32.07;;;22.17;;
18780;SDS011;9519;51.890;8.970;2022-12-10T20:19:59;39.60;;;26.23;;
18780;SDS011;9519;51.890;8.970;2022-12-10T20:25:03;65.40;;;45.00;;
18780;SDS011;9519;51.890;8.970;2022-12-10T20:30:05;40.93;;;27.37;;
18780;SDS011;9519;51.890;8.970;2022-12-10T20:35:11;42.20;;;28.43;;
18780;SDS011;9519;51.890;8.970;2022-12-10T20:40:17;34.17;;;24.50;;
18780;SDS011;9519;51.890;8.970;2022-12-10T20:45:23;34.57;;;23.80;;
18780;SDS011;9519;51.890;8.970;2022-12-10T20:50:25;33.50;;;23.03;;
18780;SDS011;9519;51.890;8.970;2022-12-10T20:55:28;36.40;;;25.40;;
18780;SDS011;9519;51.890;8.970;2022-12-10T21:00:31;36.23;;;24.80;;
18780;SDS011;9519;51.890;8.970;2022-12-10T21:05:33;34.87;;;23.93;;
18780;SDS011;9519;51.890;8.970;2022-12-10T21:10:36;33.77;;;23.83;;
18780;SDS011;9519;51.890;8.970;2022-12-10T21:15:56;36.73;;;24.23;;
18780;SDS011;9519;51.890;8.970;2022-12-10T21:21:01;35.33;;;24.20;;
18780;SDS011;9519;51.890;8.970;2022-12-10T21:26:05;37.17;;;24.70;;
18780;SDS011;9519;51.890;8.970;2022-12-10T21:31:08;36.03;;;24.40;;
18780;SDS011;9519;51.890;8.970;2022-12-10T21:36:19;36.50;;;24.43;;
18780;SDS011;9519;51.890;8.970;2022-12-10T21:41:24;40.07;;;23.93;;
18780;SDS011;9519;51.890;8.970;2022-12-10T21:46:45;35.40;;;24.50;;
18780;SDS011;9519;51.890;8.970;2022-12-10T21:51:47;33.57;;;24.03;;
18780;SDS011;9519;51.890;8.970;2022-12-10T21:56:50;30.70;;;21.77;;
18780;SDS011;9519;51.890;8.970;2022-12-10T22:01:53;36.20;;;24.17;;
18780;SDS011;9519;51.890;8.970;2022-12-10T22:06:56;37.07;;;24.87;;
18780;SDS011;9519;51.890;8.970;2022-12-10T22:12:00;38.23;;;25.87;;
18780;SDS011;9519;51.890;8.970;2022-12-10T22:17:02;37.10;;;24.17;;
18780;SDS011;9519;51.890;8.970;2022-12-10T22:22:04;35.10;;;23.40;;
18780;SDS011;9519;51.890;8.970;2022-12-10T22:27:07;35.07;;;23.40;;
18780;SDS011;9519;51.890;8.970;2022-12-10T22:32:10;33.70;;;22.60;;
18780;SDS011;9519;51.890;8.970;2022-12-10T22:37:14;35.47;;;23.37;;
18780;SDS011;9519;51.890;8.970;2022-12-10T22:42:18;32.67;;;22.90;;
18780;SDS011;9519;51.890;8.970;2022-12-10T22:47:20;36.60;;;25.07;;
18780;SDS011;9519;51.890;8.970;2022-12-10T22:52:23;34.67;;;24.43;;
18780;SDS011;9519;51.890;8.970;2022-12-10T22:57:27;34.07;;;24.73;;
18780;SDS011;9519;51.890;8.970;2022-12-10T23:02:29;34.07;;;23.33;;
18780;SDS011;9519;51.890;8.970;2022-12-10T23:07:32;37.13;;;24.40;;
18780;SDS011;9519;51.890;8.970;2022-12-10T23:12:37;36.53;;;24.77;;
18780;SDS011;9519;51.890;8.970;2022-12-10T23:17:57;34.77;;;23.50;;
18780;SDS011;9519;51.890;8.970;2022-12-10T23:22:59;36.70;;;24.90;;
18780;SDS011;9519;51.890;8.970;2022-12-10T23:28:03;34.00;;;23.57;;
18780;SDS011;9519;51.890;8.970;2022-12-10T23:33:05;36.33;;;25.13;;
18780;SDS011;9519;51.890;8.970;2022-12-10T23:38:08;37.47;;;25.30;;
18780;SDS011;9519;51.890;8.970;2022-12-10T23:43:12;42.20;;;26.07;;
18780;SDS011;9519;51.890;8.970;2022-12-10T23:48:14;34.70;;;24.90;;
18780;SDS011;9519;51.890;8.970;2022-12-10T23:53:16;35.50;;;24.43;;
18780;SDS011;9519;51.890;8.970;2022-12-10T23:58:20;37.90;;;24.90;;
